createdAt,value
2019-03-27T04:16:01.178Z,0.1
2019-03-27T04:18:01.250Z,0.2
2019-03-27T04:19:01.079Z,0.3
2019-03-27T04:21:01.100Z,0.4
2019-03-27T04:22:01.118Z,0.5
2019-03-27T04:23:03.021Z,0.7
2019-03-27T04:24:01.558Z,0.8
2019-03-27T04:25:01.117Z,0.9
2019-03-27T04:26:09.425Z,1.1
2019-03-27T04:27:01.108Z,1.3
2019-03-27T04:28:01.256Z,1.6
2019-03-27T04:29:01.141Z,2.0
2019-03-27T04:30:01.082Z,2.5
2019-03-27T04:31:01.111Z,2.9
2019-03-27T04:32:01.105Z,3.5
2019-03-27T04:33:01.218Z,4.1
2019-03-27T04:34:06.135Z,4.9
2019-03-27T04:35:01.132Z,5.9
2019-03-27T04:36:01.116Z,7.1
2019-03-27T04:37:01.114Z,8.4
2019-03-27T04:38:01.256Z,10.1
2019-03-27T04:39:06.121Z,12.2
2019-03-27T04:40:01.108Z,14.7
2019-03-27T04:41:01.107Z,17.7
2019-03-27T04:42:01.108Z,21.0
2019-03-27T04:43:01.332Z,24.7
2019-03-27T04:44:01.153Z,28.9
2019-03-27T04:45:01.118Z,33.6
2019-03-27T04:46:01.115Z,39.1
2019-03-27T04:47:01.128Z,45.3
2019-03-27T04:48:01.265Z,52.3
2019-03-27T04:49:07.754Z,60.3
2019-03-27T04:51:01.089Z,71.4
2019-03-27T04:52:01.099Z,84.2
2019-03-27T04:53:01.248Z,99.1
2019-03-27T04:54:01.144Z,116.6
2019-03-27T04:55:01.100Z,136.8
2019-03-27T04:56:01.095Z,159.6
2019-03-27T04:57:01.097Z,185.0
2019-03-27T04:58:01.241Z,212.1
2019-03-27T04:59:01.129Z,240.8
2019-03-27T05:00:02.121Z,271.3
2019-03-27T05:01:01.104Z,304.7
2019-03-27T05:02:01.099Z,341.6
2019-03-27T05:03:01.355Z,380.3
2019-03-27T05:04:01.133Z,421.9
2019-03-27T05:05:01.100Z,465.1
2019-03-27T05:06:01.097Z,509.0
2019-03-27T05:07:01.176Z,552.3
2019-03-27T05:08:01.259Z,596.5
2019-03-27T05:09:01.143Z,644.9
2019-03-27T05:10:01.104Z,694.5
2019-03-27T05:11:01.104Z,747.7
2019-03-27T05:12:01.109Z,799.8
2019-03-27T05:13:01.329Z,859.5
2019-03-27T05:14:01.131Z,921.6
2019-03-27T05:15:01.107Z,984.3
2019-03-27T05:16:01.067Z,1052.3
2019-03-27T05:17:01.104Z,1127.2
2019-03-27T05:18:02.058Z,1214.0
2019-03-27T05:19:01.129Z,1299.3
2019-03-27T05:20:01.110Z,1384.8
2019-03-27T05:21:01.097Z,1476.8
2019-03-27T05:22:01.097Z,1587.7
2019-03-27T05:23:01.258Z,1703.4
2019-03-27T05:24:01.222Z,1823.7
2019-03-27T05:25:01.106Z,1945.5
2019-03-27T05:26:01.109Z,2061.7
2019-03-27T05:27:01.110Z,2183.5
2019-03-27T05:28:01.259Z,2292.8
2019-03-27T05:29:01.107Z,2402.0
2019-03-27T05:30:01.113Z,2521.7
2019-03-27T05:31:01.583Z,2655.3
2019-03-27T05:32:01.168Z,2774.5
2019-03-27T05:33:01.259Z,2900.4
2019-03-27T05:34:01.144Z,3023.7
2019-03-27T05:35:01.112Z,3149.5
2019-03-27T05:36:01.169Z,3290.1
2019-03-27T05:37:01.115Z,3440.7
2019-03-27T05:38:01.252Z,3594.5
2019-03-27T05:40:01.103Z,3765.8
2019-03-27T05:41:01.101Z,3954.4
2019-03-27T05:42:01.096Z,4193.8
2019-03-27T05:43:01.403Z,4472.3
2019-03-27T05:44:01.251Z,4788.3
2019-03-27T05:45:01.175Z,5119.9
2019-03-27T05:46:01.098Z,5456.6
2019-03-27T05:47:01.099Z,5790.5
2019-03-27T05:48:01.101Z,6130.8
2019-03-27T05:49:01.319Z,6462.1
2019-03-27T05:50:06.175Z,6820.9
2019-03-27T05:51:01.109Z,7201.2
2019-03-27T05:52:01.110Z,7543.1
2019-03-27T05:53:01.110Z,7880.6
2019-03-27T05:54:01.252Z,8250.5
2019-03-27T05:55:01.286Z,8612.7
2019-03-27T05:56:01.164Z,8930.7
2019-03-27T05:57:01.932Z,9212.5
2019-03-27T05:58:01.098Z,9512.3
2019-03-27T05:59:01.249Z,9773.1
2019-03-27T06:00:06.123Z,10100.4
2019-03-27T06:01:01.100Z,10470.8
2019-03-27T06:02:01.170Z,10856.0
2019-03-27T06:03:01.104Z,11162.9
2019-03-27T06:04:01.240Z,11438.1
2019-03-27T06:05:01.139Z,11643.3
2019-03-27T06:06:01.078Z,11818.7
2019-03-27T06:07:01.108Z,12119.9
2019-03-27T06:08:01.108Z,12544.5
2019-03-27T06:09:01.259Z,13100.8
2019-03-27T06:10:01.144Z,13735.1
2019-03-27T06:11:01.103Z,14404.7
2019-03-27T06:12:01.115Z,15122.3
2019-03-27T06:13:01.108Z,15786.1
2019-03-27T06:14:01.265Z,16399.3
2019-03-27T06:15:06.113Z,16939.9
2019-03-27T06:16:01.111Z,17543.5
2019-03-27T06:17:01.112Z,18245.1
2019-03-27T06:18:12.445Z,19129.8
2019-03-27T06:19:01.322Z,20110.5
2019-03-27T06:20:06.149Z,21184.2
2019-03-27T06:21:01.112Z,22233.1
2019-03-27T06:22:01.117Z,23280.6
2019-03-27T06:23:01.111Z,24320.7
2019-03-27T06:24:01.270Z,25188.3
2019-03-27T06:25:01.138Z,26023.5
2019-03-27T06:26:01.110Z,27103.6
2019-03-27T06:27:01.110Z,28183.9
2019-03-27T06:28:01.108Z,29419.1
2019-03-27T06:29:01.330Z,31016.3
2019-03-27T06:30:01.109Z,32600.9
2019-03-27T06:31:01.107Z,33966.3
2019-03-27T06:33:01.095Z,35215.4
2019-03-27T06:34:01.256Z,36294.1
2019-03-27T06:35:06.109Z,37475.3
2019-03-27T06:36:01.067Z,38742.5
2019-03-27T06:37:01.100Z,40069.7
2019-03-27T06:38:01.093Z,41421.8
2019-03-27T06:39:01.259Z,43100.2
2019-03-27T06:40:06.112Z,44523.9
2019-03-27T06:41:01.189Z,45750.1
2019-03-27T06:42:01.106Z,46718.7
2019-03-27T06:43:01.104Z,47341.7
2019-03-27T06:44:01.259Z,47548.0
2019-03-27T06:45:01.096Z,47350.6
2019-03-27T06:46:01.095Z,46759.1
2019-03-27T06:47:01.097Z,46058.0
2019-03-27T06:48:02.526Z,45308.7
2019-03-27T06:49:01.241Z,44352.9
2019-03-27T06:50:06.109Z,42895.0
2019-03-27T06:51:06.105Z,41262.2
2019-03-27T06:52:01.106Z,39598.5
2019-03-27T06:53:01.108Z,37967.7
2019-03-27T06:55:01.263Z,35846.1
2019-03-27T06:56:01.128Z,33893.1
2019-03-27T06:57:01.407Z,32030.6
2019-03-27T06:58:01.099Z,30132.7
2019-03-27T06:59:01.101Z,28444.0
2019-03-27T07:00:01.350Z,26954.4
2019-03-27T07:01:06.113Z,25679.8
2019-03-27T07:02:01.102Z,24799.9
2019-03-27T07:03:01.098Z,24064.2
2019-03-27T07:04:10.162Z,23375.2
2019-03-27T07:05:01.337Z,22958.3
2019-03-27T07:06:01.131Z,22838.9
2019-03-27T07:07:01.112Z,22711.9
2019-03-27T07:08:01.101Z,22653.9
2019-03-27T07:09:01.100Z,22387.7
2019-03-27T07:10:01.258Z,22219.0
2019-03-27T07:11:01.143Z,22011.3
2019-03-27T07:12:01.065Z,21932.8
2019-03-27T07:13:01.097Z,21830.7
2019-03-27T07:14:01.098Z,21759.8
2019-03-27T07:15:01.253Z,21605.2
2019-03-27T07:16:01.150Z,21306.6
2019-03-27T07:17:01.111Z,20899.3
2019-03-27T07:18:01.099Z,20499.2
2019-03-27T07:19:01.098Z,19986.1
2019-03-27T07:20:01.262Z,19437.5
2019-03-27T07:21:01.130Z,18995.0
2019-03-27T07:22:01.109Z,18578.8
2019-03-27T07:23:01.097Z,18060.6
2019-03-27T07:24:01.099Z,17706.9
2019-03-27T07:25:01.259Z,17522.4
2019-03-27T07:26:01.099Z,17760.6
2019-03-27T07:27:01.099Z,18499.5
2019-03-27T07:28:01.102Z,19266.2
2019-03-27T07:29:01.097Z,19882.9
2019-03-27T07:30:01.331Z,21317.1
2019-03-27T07:31:01.141Z,23136.6
2019-03-27T07:32:01.105Z,25305.5
2019-03-27T07:33:01.097Z,27864.5
2019-03-27T07:34:01.100Z,30514.0
2019-03-27T07:35:01.260Z,32812.1
2019-03-27T07:36:01.137Z,34453.9
2019-03-27T07:37:01.110Z,36211.8
2019-03-27T07:38:01.178Z,37674.9
2019-03-27T07:39:10.685Z,39086.7
2019-03-27T07:40:01.331Z,40217.5
2019-03-27T07:41:01.140Z,41189.9
2019-03-27T07:42:01.107Z,41692.2
2019-03-27T07:43:01.534Z,42076.1
2019-03-27T07:44:01.111Z,42911.2
2019-03-27T07:45:01.333Z,43230.4
2019-03-27T07:46:01.141Z,43014.7
2019-03-27T07:47:01.114Z,42210.9
2019-03-27T07:48:01.110Z,41109.3
2019-03-27T07:49:01.076Z,39730.5
2019-03-27T07:51:01.293Z,38042.4
2019-03-27T07:52:01.104Z,36817.7
2019-03-27T07:53:01.097Z,35239.7
2019-03-27T07:54:01.099Z,33922.4
2019-03-27T07:55:01.102Z,32585.3
2019-03-27T07:56:01.282Z,31330.8
2019-03-27T07:57:01.117Z,30107.4
2019-03-27T07:58:01.141Z,28874.1
2019-03-27T07:59:01.108Z,28035.3
2019-03-27T08:00:02.209Z,26943.3
2019-03-27T08:01:01.277Z,25729.1
2019-03-27T08:02:06.108Z,24911.5
2019-03-27T08:03:01.099Z,24614.5
2019-03-27T08:04:01.103Z,24461.7
2019-03-27T08:05:01.103Z,24877.8
2019-03-27T08:06:01.264Z,25734.8
2019-03-27T08:07:01.133Z,26908.9
2019-03-27T08:08:01.103Z,28648.9
2019-03-27T08:09:01.103Z,30584.3
2019-03-27T08:10:01.103Z,32477.6
2019-03-27T08:11:01.262Z,34263.2
2019-03-27T08:12:01.130Z,35791.1
2019-03-27T08:13:01.117Z,37713.9
2019-03-27T08:14:01.112Z,38772.6
2019-03-27T08:15:01.102Z,39804.1
2019-03-27T08:16:01.246Z,41336.4
2019-03-27T08:17:01.129Z,42993.5
2019-03-27T08:18:01.172Z,44001.1
2019-03-27T08:19:07.178Z,44736.7
2019-03-27T08:20:01.104Z,45349.3
2019-03-27T08:21:01.321Z,47044.3
2019-03-27T08:22:01.164Z,48087.3
2019-03-27T08:23:01.773Z,48839.3
2019-03-27T08:24:06.101Z,49080.9
2019-03-27T08:25:01.110Z,49477.0
2019-03-27T08:26:01.255Z,49533.9
2019-03-27T08:27:01.176Z,49780.7
2019-03-27T08:28:01.765Z,49792.4
2019-03-27T08:29:06.170Z,51022.1
2019-03-27T08:30:01.114Z,52337.2
2019-03-27T08:31:01.258Z,53392.7
2019-03-27T08:32:01.077Z,53503.3
2019-03-27T08:33:01.105Z,54131.3
2019-03-27T08:34:06.119Z,55049.7
2019-03-27T08:35:01.174Z,55520.9
2019-03-27T08:36:01.254Z,54784.3
2019-03-27T08:37:01.075Z,54772.5
2019-03-27T08:38:01.109Z,54649.5
2019-03-27T08:39:06.126Z,55342.9
2019-03-27T08:40:01.117Z,56188.8
2019-03-27T08:41:01.269Z,57503.9
2019-03-27T08:42:01.237Z,58149.9
2019-03-27T08:43:01.112Z,58809.3
2019-03-27T08:44:06.111Z,59143.5
2019-03-27T08:45:01.120Z,58346.1
2019-03-27T08:46:01.256Z,57139.6
2019-03-27T08:47:01.106Z,57256.8
2019-03-27T08:48:01.857Z,57801.5
2019-03-27T08:49:01.147Z,58120.7
2019-03-27T08:50:01.116Z,58760.5
2019-03-27T08:51:01.465Z,59777.8
2019-03-27T08:52:01.189Z,60195.3
2019-03-27T08:53:01.113Z,60937.6
2019-03-27T08:54:06.130Z,61245.3
2019-03-27T08:55:01.122Z,61323.7
2019-03-27T08:56:01.455Z,61334.3
2019-03-27T08:57:01.117Z,61908.2
2019-03-27T08:59:06.120Z,62199.3
2019-03-27T09:00:02.694Z,62215.2
2019-03-27T09:01:01.266Z,63298.0
2019-03-27T09:02:01.118Z,64504.5
2019-03-27T09:03:01.106Z,64986.1
2019-03-27T09:04:01.115Z,64997.2
2019-03-27T09:05:01.122Z,64481.0
2019-03-27T09:06:01.312Z,63851.8
2019-03-27T09:07:01.114Z,63623.5
2019-03-27T09:08:01.115Z,63426.9
2019-03-27T09:09:01.674Z,62534.7
2019-03-27T09:10:01.538Z,62340.3
2019-03-27T09:11:04.435Z,62230.9
2019-03-27T09:12:01.111Z,62218.1
2019-03-27T09:15:01.175Z,62193.0
2019-03-27T09:16:01.256Z,61850.2
2019-03-27T09:17:01.111Z,61497.2
2019-03-27T09:18:01.107Z,61128.2
2019-03-27T09:19:01.107Z,60399.9
2019-03-27T09:20:01.112Z,60045.9
2019-03-27T09:21:01.511Z,60596.9
2019-03-27T09:22:01.117Z,61047.5
2019-03-27T09:23:01.107Z,61275.8
2019-03-27T09:24:01.113Z,61794.9
2019-03-27T09:25:01.120Z,62777.8
2019-03-27T09:26:01.543Z,62903.5
2019-03-27T09:27:01.111Z,62652.0
2019-03-27T09:28:01.108Z,62664.7
2019-03-27T09:30:01.115Z,62689.9
2019-03-27T09:31:01.323Z,63032.7
2019-03-27T09:32:01.112Z,63385.7
2019-03-27T09:34:01.102Z,63754.7
2019-03-27T09:35:01.099Z,64483.0
2019-03-27T09:36:01.435Z,64836.9
2019-03-27T09:38:01.090Z,65015.5
2019-03-27T09:41:01.244Z,64838.7
2019-03-27T09:42:01.096Z,64753.5
2019-03-27T09:43:01.112Z,65114.5
2019-03-27T09:44:01.104Z,64790.3
2019-03-27T09:45:01.106Z,64338.5
2019-03-27T09:46:01.296Z,64007.1
2019-03-27T09:47:01.098Z,63984.8
2019-03-27T09:49:01.106Z,63771.1
2019-03-27T09:50:01.102Z,62907.9
2019-03-27T09:51:02.282Z,62145.3
2019-03-27T09:52:01.100Z,61364.9
2019-03-27T09:53:01.106Z,60995.0
2019-03-27T09:54:01.131Z,60650.5
2019-03-27T09:56:01.329Z,60827.3
2019-03-27T09:57:01.102Z,61071.1
2019-03-27T09:59:06.253Z,61395.2
2019-03-27T10:00:01.111Z,61847.0
2019-03-27T10:01:01.250Z,62178.5
2019-03-27T10:02:01.108Z,62200.7
2019-03-27T10:04:01.194Z,62414.4
2019-03-27T10:05:01.106Z,63277.7
2019-03-27T10:06:01.543Z,64040.3
2019-03-27T10:07:01.107Z,64820.6
2019-03-27T10:08:01.102Z,65190.5
2019-03-27T10:09:01.137Z,65535.0
2019-03-27T10:15:01.318Z,65535.0
2019-03-27T10:30:06.103Z,65535.0
2019-03-27T10:45:01.104Z,65535.0
2019-03-27T10:48:01.247Z,65353.7
2019-03-27T10:49:01.105Z,65228.7
2019-03-27T10:55:06.116Z,65058.7
2019-03-27T10:59:01.110Z,64939.2
2019-03-27T11:00:01.165Z,64939.2
2019-03-27T11:02:01.107Z,64618.3
2019-03-27T11:03:01.296Z,64799.7
2019-03-27T11:04:01.109Z,64924.7
2019-03-27T11:10:01.294Z,65094.7
2019-03-27T11:14:01.118Z,65214.1
2019-03-27T11:15:01.336Z,65214.1
2019-03-27T11:17:01.114Z,65535.0
2019-03-27T11:30:01.109Z,65535.0
2019-03-27T11:42:01.383Z,65518.4
2019-03-27T11:43:01.114Z,65231.8
2019-03-27T11:45:06.120Z,65162.5
2019-03-27T11:46:01.106Z,64310.8
2019-03-27T11:58:01.343Z,64327.4
2019-03-27T11:59:01.177Z,64614.0
2019-03-27T12:00:01.100Z,64614.0
2019-03-27T12:01:01.104Z,64683.3
2019-03-27T12:02:01.135Z,65451.5
2019-03-27T12:04:01.106Z,65183.9
2019-03-27T12:05:01.112Z,65051.6
2019-03-27T12:06:01.066Z,64818.2
2019-03-27T12:07:01.778Z,64314.3
2019-03-27T12:08:01.248Z,63701.1
2019-03-27T12:09:01.096Z,62583.3
2019-03-27T12:10:01.111Z,60704.6
2019-03-27T12:11:01.101Z,58639.1
2019-03-27T12:12:01.096Z,57495.1
2019-03-27T12:13:01.321Z,56949.7
2019-03-27T12:14:01.103Z,56506.9
2019-03-27T12:15:01.109Z,56506.9
2019-03-27T12:16:01.096Z,55993.5
2019-03-27T12:17:01.104Z,55712.7
2019-03-27T12:18:01.255Z,55680.2
2019-03-27T12:19:01.101Z,55422.5
2019-03-27T12:20:01.687Z,55235.3
2019-03-27T12:21:01.099Z,55468.7
2019-03-27T12:22:01.097Z,55972.6
2019-03-27T12:23:01.318Z,56585.7
2019-03-27T12:24:01.103Z,57703.5
2019-03-27T12:25:01.102Z,59582.3
2019-03-27T12:26:01.105Z,61647.7
2019-03-27T12:27:01.106Z,62791.7
2019-03-27T12:28:01.265Z,63337.1
2019-03-27T12:29:01.105Z,63779.9
2019-03-27T12:30:01.170Z,63779.9
2019-03-27T12:31:01.110Z,64293.3
2019-03-27T12:32:01.912Z,64657.6
2019-03-27T12:33:01.738Z,64690.1
2019-03-27T12:34:01.109Z,65215.5
2019-03-27T12:35:01.110Z,65535.0
2019-03-27T12:41:01.105Z,65098.7
2019-03-27T12:42:01.114Z,64846.7
2019-03-27T12:43:01.255Z,64457.4
2019-03-27T12:45:06.114Z,63900.1
2019-03-27T12:46:01.107Z,63130.5
2019-03-27T12:47:01.102Z,62220.9
2019-03-27T12:48:01.103Z,61516.9
2019-03-27T12:49:01.262Z,60988.0
2019-03-27T12:50:06.108Z,60158.8
2019-03-27T12:51:11.938Z,58903.0
2019-03-27T12:52:01.099Z,57767.2
2019-03-27T12:53:01.104Z,56834.0
2019-03-27T12:54:01.504Z,55864.9
2019-03-27T12:55:01.256Z,54699.9
2019-03-27T12:56:06.098Z,53304.5
2019-03-27T12:57:01.104Z,52773.9
2019-03-27T12:58:01.095Z,52106.9
2019-03-27T12:59:01.252Z,51923.9
2019-03-27T13:00:01.103Z,51847.2
2019-03-27T13:01:01.132Z,52309.6
2019-03-27T13:02:06.104Z,52965.5
2019-03-27T13:03:01.094Z,53476.4
2019-03-27T13:04:01.302Z,53980.6
2019-03-27T13:05:01.099Z,54612.8
2019-03-27T13:06:01.106Z,55223.6
2019-03-27T13:07:01.142Z,55648.6
2019-03-27T13:08:01.099Z,55873.7
2019-03-27T13:09:01.246Z,56222.7
2019-03-27T13:10:01.110Z,56794.1
2019-03-27T13:11:01.119Z,57195.4
2019-03-27T13:12:01.128Z,57282.3
2019-03-27T13:13:01.096Z,57529.0
2019-03-27T13:14:01.262Z,57170.1
2019-03-27T13:15:01.116Z,56653.7
2019-03-27T13:16:01.109Z,55615.1
2019-03-27T13:17:01.146Z,54238.9
2019-03-27T13:18:01.080Z,53105.5
2019-03-27T13:19:01.399Z,51672.7
2019-03-27T13:20:03.188Z,50326.8
2019-03-27T13:21:01.114Z,49421.8
2019-03-27T13:22:01.134Z,49128.9
2019-03-27T13:23:01.102Z,48814.7
2019-03-27T13:24:01.262Z,48326.9
2019-03-27T13:25:01.112Z,47692.3
2019-03-27T13:26:06.115Z,47666.5
2019-03-27T13:27:01.107Z,47612.6
2019-03-27T13:28:01.102Z,47273.9
2019-03-27T13:29:01.259Z,46954.1
2019-03-27T13:30:01.133Z,46703.9
2019-03-27T13:31:06.115Z,46338.9
2019-03-27T13:32:01.123Z,45971.4
2019-03-27T13:33:01.112Z,45393.2
2019-03-27T13:34:01.269Z,45086.5
2019-03-27T13:35:01.115Z,44496.0
2019-03-27T13:37:01.120Z,43686.4
2019-03-27T13:38:01.106Z,42826.6
2019-03-27T13:39:01.257Z,42019.4
2019-03-27T13:40:01.102Z,41389.7
2019-03-27T13:41:01.103Z,41384.9
2019-03-27T13:42:01.124Z,40621.8
2019-03-27T13:43:01.102Z,39927.1
2019-03-27T13:44:01.256Z,39103.5
2019-03-27T13:45:01.099Z,38576.5
2019-03-27T13:46:01.101Z,38215.1
2019-03-27T13:47:06.217Z,38102.8
2019-03-27T13:48:01.099Z,38147.3
2019-03-27T13:49:01.254Z,37988.9
2019-03-27T13:50:01.076Z,37628.4
2019-03-27T13:51:01.103Z,37822.1
2019-03-27T13:52:06.109Z,38245.0
2019-03-27T13:53:01.099Z,38270.6
2019-03-27T13:54:01.248Z,38394.5
2019-03-27T13:55:01.103Z,38682.9
2019-03-27T13:56:01.107Z,38500.7
2019-03-27T13:57:06.104Z,38876.8
2019-03-27T13:58:01.119Z,39272.3
2019-03-27T13:59:01.262Z,39980.9
2019-03-27T14:00:01.129Z,40448.5
2019-03-27T14:01:01.114Z,41320.1
2019-03-27T14:02:01.143Z,41920.4
2019-03-27T14:03:01.108Z,42094.7
2019-03-27T14:04:01.289Z,42041.5
2019-03-27T14:05:01.111Z,42050.3
2019-03-27T14:06:03.808Z,41922.7
2019-03-27T14:07:01.138Z,41739.5
2019-03-27T14:08:01.114Z,41636.7
2019-03-27T14:09:01.286Z,41513.1
2019-03-27T14:10:01.123Z,41279.8
2019-03-27T14:11:01.128Z,40927.1
2019-03-27T14:12:01.151Z,40893.3
2019-03-27T14:14:10.931Z,40882.3
2019-03-27T14:15:01.097Z,41065.5
2019-03-27T14:16:01.102Z,41687.6
2019-03-27T14:17:01.135Z,41772.3
2019-03-27T14:18:01.104Z,42165.4
2019-03-27T14:19:01.254Z,43124.3
2019-03-27T14:20:01.094Z,44310.9
2019-03-27T14:21:01.102Z,46032.0
2019-03-27T14:22:01.136Z,47598.8
2019-03-27T14:23:01.105Z,49033.4
2019-03-27T14:24:01.310Z,49877.1
2019-03-27T14:25:01.233Z,50570.8
2019-03-27T14:26:01.171Z,50709.3
2019-03-27T14:27:01.131Z,50760.5
2019-03-27T14:28:01.105Z,51214.9
2019-03-27T14:29:01.259Z,50960.8
2019-03-27T14:30:01.109Z,50156.5
2019-03-27T14:31:01.097Z,49116.1
2019-03-27T14:32:01.132Z,48051.3
2019-03-27T14:33:01.096Z,47385.5
2019-03-27T14:34:01.248Z,46328.5
2019-03-27T14:35:02.093Z,45237.1
2019-03-27T14:36:01.096Z,43631.0
2019-03-27T14:37:01.132Z,42380.2
2019-03-27T14:38:01.102Z,41238.7
2019-03-27T14:39:01.251Z,40339.2
2019-03-27T14:40:01.115Z,39819.7
2019-03-27T14:41:01.068Z,39681.3
2019-03-27T14:42:01.120Z,39566.3
2019-03-27T14:43:01.102Z,38533.7
2019-03-27T14:44:01.249Z,38336.3
2019-03-27T14:45:01.077Z,38184.9
2019-03-27T14:46:01.103Z,37834.9
2019-03-27T14:47:06.108Z,37588.2
2019-03-27T14:48:01.109Z,37807.1
2019-03-27T14:49:03.119Z,38004.7
2019-03-27T14:50:06.108Z,37863.1
2019-03-27T14:51:01.074Z,37870.1
2019-03-27T14:52:07.889Z,37218.9
2019-03-27T14:53:01.098Z,36893.7
2019-03-27T14:54:01.245Z,36263.7
2019-03-27T14:55:03.110Z,35369.9
2019-03-27T14:56:01.102Z,34319.2
2019-03-27T14:57:06.114Z,33347.7
2019-03-27T14:58:01.097Z,32560.4
2019-03-27T14:59:01.258Z,31556.5
2019-03-27T15:00:01.102Z,30867.2
2019-03-27T15:01:01.107Z,30250.4
2019-03-27T15:02:01.140Z,29546.3
2019-03-27T15:03:01.110Z,28037.7
2019-03-27T15:04:01.282Z,26913.1
2019-03-27T15:05:01.124Z,26185.6
2019-03-27T15:06:01.112Z,25194.7
2019-03-27T15:07:06.111Z,24736.9
2019-03-27T15:08:04.021Z,23925.1
2019-03-27T15:09:01.300Z,23508.3
2019-03-27T15:10:01.114Z,22994.7
2019-03-27T15:11:01.114Z,22617.9
2019-03-27T15:12:06.118Z,22391.7
2019-03-27T15:13:01.113Z,22178.5
2019-03-27T15:14:01.235Z,21844.4
2019-03-27T15:16:01.094Z,21229.6
2019-03-27T15:17:01.113Z,20833.7
2019-03-27T15:18:01.087Z,20747.9
2019-03-27T15:19:01.062Z,20495.3
2019-03-27T15:20:01.254Z,20484.0
2019-03-27T15:21:01.089Z,20582.2
2019-03-27T15:22:01.125Z,21104.4
2019-03-27T15:23:01.104Z,21190.5
2019-03-27T15:24:01.069Z,21364.8
2019-03-27T15:25:01.247Z,22069.7
2019-03-27T15:26:01.099Z,22599.8
2019-03-27T15:27:01.125Z,23125.2
2019-03-27T15:28:01.096Z,23803.6
2019-03-27T15:29:01.107Z,24678.4
2019-03-27T15:30:01.317Z,25292.9
2019-03-27T15:31:01.171Z,26081.7
2019-03-27T15:32:01.124Z,26802.2
2019-03-27T15:33:01.063Z,26910.7
2019-03-27T15:34:03.331Z,27462.7
2019-03-27T15:35:01.249Z,27890.9
2019-03-27T15:36:01.101Z,28216.4
2019-03-27T15:37:01.086Z,28096.5
2019-03-27T15:38:01.094Z,28217.0
2019-03-27T15:39:01.098Z,28398.1
2019-03-27T15:40:01.247Z,28068.9
2019-03-27T15:41:01.095Z,28069.7
2019-03-27T15:42:01.063Z,27821.3
2019-03-27T15:43:01.104Z,27376.1
2019-03-27T15:44:01.095Z,26565.1
2019-03-27T15:45:01.253Z,26072.3
2019-03-27T15:46:01.074Z,25627.2
2019-03-27T15:47:01.097Z,24853.9
2019-03-27T15:48:01.107Z,24496.4
2019-03-27T15:49:01.108Z,24049.1
2019-03-27T15:50:01.285Z,23314.1
2019-03-27T15:51:01.096Z,22951.8
2019-03-27T15:52:01.101Z,22407.4
2019-03-27T15:53:01.100Z,22037.0
2019-03-27T15:54:01.095Z,21543.2
2019-03-27T15:55:01.412Z,21061.9
2019-03-27T15:56:01.096Z,20370.3
2019-03-27T15:57:01.103Z,20177.8
2019-03-27T15:58:01.102Z,19888.5
2019-03-27T15:59:01.104Z,19727.1
2019-03-27T16:00:01.313Z,19352.7
2019-03-27T16:01:01.098Z,19098.7
2019-03-27T16:02:01.109Z,19029.8
2019-03-27T16:03:01.100Z,18963.4
2019-03-27T16:04:01.111Z,18600.5
2019-03-27T16:05:01.374Z,18301.3
2019-03-27T16:06:01.111Z,17792.7
2019-03-27T16:07:06.119Z,17412.4
2019-03-27T16:08:01.110Z,16888.0
2019-03-27T16:09:01.103Z,16345.2
2019-03-27T16:10:01.334Z,15934.6
2019-03-27T16:11:01.109Z,15749.9
2019-03-27T16:12:06.108Z,15303.6
2019-03-27T16:13:01.103Z,15010.3
2019-03-27T16:14:01.105Z,14832.0
2019-03-27T16:15:01.255Z,14639.6
2019-03-27T16:16:01.115Z,14439.1
2019-03-27T16:17:12.555Z,14309.7
2019-03-27T16:18:01.111Z,14189.4
2019-03-27T16:19:01.117Z,14055.2
2019-03-27T16:20:01.267Z,14053.8
2019-03-27T16:21:01.105Z,13906.0
2019-03-27T16:23:01.224Z,13944.2
2019-03-27T16:24:06.470Z,13868.4
2019-03-27T16:25:01.280Z,13940.2
2019-03-27T16:26:01.097Z,14070.7
2019-03-27T16:27:04.526Z,13995.0
2019-03-27T16:28:01.093Z,14055.5
2019-03-27T16:29:01.102Z,14155.1
2019-03-27T16:30:01.258Z,14318.4
2019-03-27T16:31:01.096Z,14641.9
2019-03-27T16:32:01.129Z,14766.2
2019-03-27T16:33:01.103Z,14802.3
2019-03-27T16:34:01.103Z,14884.8
2019-03-27T16:35:01.250Z,14908.1
2019-03-27T16:36:01.097Z,14812.3
2019-03-27T16:37:01.133Z,14838.3
2019-03-27T16:38:01.193Z,14699.4
2019-03-27T16:39:01.106Z,14804.3
2019-03-27T16:40:01.321Z,14732.6
2019-03-27T16:41:01.100Z,14578.3
2019-03-27T16:42:01.133Z,14548.7
2019-03-27T16:43:02.154Z,14340.8
2019-03-27T16:44:01.097Z,13955.1
2019-03-27T16:45:01.247Z,13447.9
2019-03-27T16:46:01.104Z,12962.5
2019-03-27T16:47:01.136Z,12471.1
2019-03-27T16:48:01.095Z,12023.9
2019-03-27T16:49:01.066Z,11528.8
2019-03-27T16:50:01.321Z,11151.0
2019-03-27T16:51:01.099Z,10813.8
2019-03-27T16:52:01.129Z,10396.6
2019-03-27T16:53:03.549Z,10164.0
2019-03-27T16:54:01.109Z,9845.9
2019-03-27T16:55:01.265Z,9661.5
2019-03-27T16:56:01.112Z,9365.1
2019-03-27T16:57:06.114Z,9021.5
2019-03-27T16:58:01.098Z,8677.2
2019-03-27T16:59:01.108Z,8404.2
2019-03-27T17:00:02.796Z,8036.9
2019-03-27T17:01:01.106Z,7672.1
2019-03-27T17:02:06.118Z,7312.4
2019-03-27T17:03:01.110Z,7036.2
2019-03-27T17:04:01.114Z,6759.2
2019-03-27T17:05:01.344Z,6514.9
2019-03-27T17:06:01.107Z,6315.7
2019-03-27T17:07:06.114Z,6155.5
2019-03-27T17:08:06.115Z,5915.3
2019-03-27T17:09:01.108Z,5641.9
2019-03-27T17:10:01.259Z,5355.2
2019-03-27T17:11:01.110Z,5122.4
2019-03-27T17:12:01.144Z,4853.9
2019-03-27T17:13:01.109Z,4704.1
2019-03-27T17:14:01.113Z,4513.5
2019-03-27T17:15:01.267Z,4358.2
2019-03-27T17:16:01.107Z,4183.7
2019-03-27T17:17:01.149Z,4035.0
2019-03-27T17:18:01.111Z,3836.8
2019-03-27T17:19:01.112Z,3629.2
2019-03-27T17:20:01.268Z,3405.7
2019-03-27T17:21:01.200Z,3213.4
2019-03-27T17:22:01.288Z,2986.4
2019-03-27T17:24:01.161Z,2799.0
2019-03-27T17:25:01.246Z,2639.8
2019-03-27T17:26:01.149Z,2480.6
2019-03-27T17:27:01.235Z,2310.4
2019-03-27T17:28:01.168Z,2147.4
2019-03-27T17:29:01.101Z,1968.0
2019-03-27T17:30:01.452Z,1807.9
2019-03-27T17:31:01.096Z,1666.9
2019-03-27T17:32:01.102Z,1541.7
2019-03-27T17:33:01.096Z,1425.3
2019-03-27T17:34:01.108Z,1353.4
2019-03-27T17:35:01.266Z,1286.5
2019-03-27T17:36:01.101Z,1244.9
2019-03-27T17:37:01.102Z,1188.7
2019-03-27T17:38:01.579Z,1146.3
2019-03-27T17:39:01.107Z,1115.0
2019-03-27T17:40:01.299Z,1078.7
2019-03-27T17:41:01.103Z,1046.5
2019-03-27T17:42:01.102Z,1014.4
2019-03-27T17:43:06.115Z,989.2
2019-03-27T17:44:01.102Z,958.9
2019-03-27T17:45:01.266Z,928.8
2019-03-27T17:46:01.101Z,910.6
2019-03-27T17:47:01.103Z,893.3
2019-03-27T17:48:01.135Z,877.7
2019-03-27T17:49:01.101Z,846.7
2019-03-27T17:50:01.256Z,816.8
2019-03-27T17:51:01.097Z,771.4
2019-03-27T17:52:01.177Z,735.5
2019-03-27T17:53:01.136Z,697.1
2019-03-27T17:54:01.104Z,649.1
2019-03-27T17:55:01.253Z,608.9
2019-03-27T17:56:01.107Z,565.9
2019-03-27T17:57:01.135Z,527.5
2019-03-27T17:58:01.133Z,486.5
2019-03-27T17:59:01.100Z,453.6
2019-03-27T18:00:01.257Z,415.6
2019-03-27T18:01:01.106Z,378.7
2019-03-27T18:02:01.103Z,343.4
2019-03-27T18:03:01.134Z,306.3
2019-03-27T18:04:02.222Z,277.4
2019-03-27T18:05:01.276Z,252.5
2019-03-27T18:06:01.184Z,229.3
2019-03-27T18:07:01.099Z,204.9
2019-03-27T18:08:01.129Z,185.5
2019-03-27T18:09:01.104Z,168.2
2019-03-27T18:10:01.253Z,149.3
2019-03-27T18:11:01.106Z,133.5
2019-03-27T18:12:01.106Z,120.5
2019-03-27T18:13:06.109Z,108.1
2019-03-27T18:14:01.198Z,96.7
2019-03-27T18:15:01.319Z,86.1
2019-03-27T18:16:01.106Z,76.7
2019-03-27T18:17:01.121Z,66.8
2019-03-27T18:18:06.118Z,57.1
2019-03-27T18:19:01.074Z,48.8
2019-03-27T18:21:01.103Z,42.1
2019-03-27T18:22:07.344Z,36.3
2019-03-27T18:23:01.132Z,31.1
2019-03-27T18:24:01.102Z,26.5
2019-03-27T18:25:02.297Z,22.5
2019-03-27T18:26:01.100Z,19.3
2019-03-27T18:27:01.104Z,16.7
2019-03-27T18:28:06.106Z,14.0
2019-03-27T18:29:01.104Z,12.0
2019-03-27T18:30:01.256Z,10.3
2019-03-27T18:31:01.100Z,8.7
2019-03-27T18:32:01.112Z,7.1
2019-03-27T18:33:01.142Z,5.9